createdAt,value
2018-07-07T00:01:24.655Z,24.33
2018-07-07T00:03:53.703Z,24.31
2018-07-07T00:06:22.707Z,24.25
2018-07-07T00:08:51.369Z,24.22
2018-07-07T00:11:20.502Z,24.18
2018-07-07T00:13:49.193Z,24.16
2018-07-07T00:16:17.916Z,24.14
2018-07-07T00:18:46.976Z,24.08
2018-07-07T00:21:15.691Z,24.03
2018-07-07T00:23:44.375Z,24.02
2018-07-07T00:26:13.829Z,23.96
2018-07-07T00:28:43.555Z,23.93
2018-07-07T00:31:12.965Z,23.90
2018-07-07T00:33:42.423Z,23.87
2018-07-07T00:36:11.810Z,23.86
2018-07-07T00:38:41.232Z,23.83
2018-07-07T00:41:10.674Z,23.82
2018-07-07T00:43:39.669Z,23.78
2018-07-07T00:46:08.958Z,23.76
2018-07-07T00:48:38.560Z,23.74
2018-07-07T00:51:08.240Z,23.73
2018-07-07T00:53:37.718Z,23.76
2018-07-07T00:56:07.529Z,23.78
2018-07-07T00:58:36.647Z,23.78
2018-07-07T01:01:05.926Z,23.79
2018-07-07T01:03:35.585Z,23.76
2018-07-07T01:06:06.006Z,23.74
2018-07-07T01:08:35.337Z,23.68
2018-07-07T01:11:04.611Z,23.67
2018-07-07T01:13:33.980Z,23.67
2018-07-07T01:16:04.591Z,23.64
2018-07-07T01:18:35.239Z,23.64
2018-07-07T01:21:04.582Z,23.65
2018-07-07T01:23:33.964Z,23.63
2018-07-07T01:26:04.244Z,23.65
2018-07-07T01:28:33.486Z,23.65
2018-07-07T01:31:02.537Z,23.64
2018-07-07T01:33:32.084Z,23.63
2018-07-07T01:36:01.010Z,23.60
2018-07-07T01:38:29.991Z,23.59
2018-07-07T01:40:59.781Z,23.57
2018-07-07T01:43:29.124Z,23.58
2018-07-07T01:45:58.558Z,23.57
2018-07-07T01:48:28.258Z,23.58
2018-07-07T01:50:57.224Z,23.60
2018-07-07T01:53:26.296Z,23.60
2018-07-07T01:55:55.896Z,23.57
2018-07-07T01:58:25.073Z,23.58
2018-07-07T02:00:54.519Z,23.58
2018-07-07T02:03:24.505Z,23.58
2018-07-07T02:05:53.844Z,23.54
2018-07-07T02:08:23.103Z,23.54
2018-07-07T02:10:52.761Z,23.53
2018-07-07T02:13:22.074Z,23.51
2018-07-07T02:15:51.469Z,23.48
2018-07-07T02:18:21.101Z,23.46
2018-07-07T02:20:50.319Z,23.44
2018-07-07T02:23:19.447Z,23.41
2018-07-07T02:25:49.024Z,23.40
2018-07-07T02:28:18.427Z,23.37
2018-07-07T02:30:47.676Z,23.34
2018-07-07T02:33:17.363Z,23.31
2018-07-07T02:35:46.688Z,23.29
2018-07-07T02:38:15.676Z,23.22
2018-07-07T02:40:44.869Z,23.20
2018-07-07T02:43:14.146Z,23.16
2018-07-07T02:45:43.476Z,23.11
2018-07-07T02:48:13.035Z,23.07
2018-07-07T02:50:42.134Z,23.04
2018-07-07T02:53:11.369Z,23.00
2018-07-07T02:55:41.131Z,22.97
2018-07-07T02:58:10.425Z,22.92
2018-07-07T03:00:39.373Z,22.90
2018-07-07T03:03:08.452Z,22.88
2018-07-07T03:05:37.640Z,22.87
2018-07-07T03:08:07.063Z,22.86
2018-07-07T03:10:36.474Z,22.83
2018-07-07T03:13:05.727Z,22.79
2018-07-07T03:15:34.910Z,22.77
2018-07-07T03:18:04.827Z,22.75
2018-07-07T03:20:34.555Z,22.72
2018-07-07T03:23:03.539Z,22.70
2018-07-07T03:25:32.641Z,22.68
2018-07-07T03:28:02.800Z,22.67
2018-07-07T03:30:32.266Z,22.64
2018-07-07T03:33:01.553Z,22.60
2018-07-07T03:35:31.256Z,22.59
2018-07-07T03:38:00.327Z,22.60
2018-07-07T03:40:29.439Z,22.61
2018-07-07T03:42:59.192Z,22.60
2018-07-07T03:45:28.643Z,22.59
2018-07-07T03:47:57.962Z,22.59
2018-07-07T03:50:27.338Z,22.59
2018-07-07T03:52:56.730Z,22.58
2018-07-07T03:55:26.077Z,22.57
2018-07-07T03:57:55.530Z,22.57
2018-07-07T04:00:24.522Z,22.59
2018-07-07T04:02:53.900Z,22.61
2018-07-07T04:05:23.253Z,22.60
2018-07-07T04:07:52.364Z,22.58
2018-07-07T04:10:21.683Z,22.57
2018-07-07T04:12:51.556Z,22.57
2018-07-07T04:15:20.777Z,22.57
2018-07-07T04:17:50.419Z,22.57
2018-07-07T04:20:20.053Z,22.56
2018-07-07T04:22:49.015Z,22.55
2018-07-07T04:25:18.077Z,22.57
2018-07-07T04:27:47.564Z,22.61
2018-07-07T04:30:16.532Z,22.62
2018-07-07T04:32:45.838Z,22.66
2018-07-07T04:35:15.315Z,22.65
2018-07-07T04:37:44.809Z,22.66
2018-07-07T04:40:14.218Z,22.71
2018-07-07T04:42:44.374Z,22.77
2018-07-07T04:45:13.741Z,22.83
2018-07-07T04:47:43.084Z,22.83
2018-07-07T04:50:12.464Z,22.87
2018-07-07T04:52:42.129Z,22.91
2018-07-07T04:55:11.413Z,22.97
2018-07-07T04:57:40.926Z,23.02
2018-07-07T05:00:10.098Z,23.04
2018-07-07T05:02:39.259Z,23.08
2018-07-07T05:05:08.841Z,23.11
2018-07-07T05:07:38.191Z,23.13
2018-07-07T05:10:07.291Z,23.15
2018-07-07T05:12:36.798Z,23.17
2018-07-07T05:15:06.137Z,23.22
2018-07-07T05:17:35.359Z,23.25
2018-07-07T05:20:05.591Z,23.28
2018-07-07T05:22:34.784Z,23.31
2018-07-07T05:25:04.414Z,23.36
2018-07-07T05:27:34.155Z,23.38
2018-07-07T05:30:03.745Z,23.42
2018-07-07T05:32:33.075Z,23.45
2018-07-07T05:35:02.840Z,23.48
2018-07-07T05:37:32.143Z,23.55
2018-07-07T05:40:01.743Z,23.65
2018-07-07T05:42:31.178Z,23.72
2018-07-07T05:45:00.554Z,23.81
2018-07-07T05:47:29.836Z,23.87
2018-07-07T05:49:59.805Z,23.95
2018-07-07T05:52:29.133Z,24.00
2018-07-07T05:54:58.176Z,24.05
2018-07-07T05:57:27.822Z,24.14
2018-07-07T05:59:57.007Z,24.28
2018-07-07T06:02:29.354Z,24.38
2018-07-07T06:04:59.205Z,24.43
2018-07-07T06:07:28.337Z,24.44
2018-07-07T06:09:57.757Z,24.41
2018-07-07T06:12:28.051Z,24.39
2018-07-07T06:14:57.510Z,24.47
2018-07-07T06:17:26.740Z,24.55
2018-07-07T06:19:56.406Z,24.65
2018-07-07T06:22:25.838Z,24.75
2018-07-07T06:24:54.824Z,24.86
2018-07-07T06:29:46.966Z,25.03
2018-07-07T06:32:16.461Z,25.16
2018-07-07T06:34:45.948Z,25.27
2018-07-07T06:37:15.123Z,25.39
2018-07-07T06:39:44.090Z,25.49
2018-07-07T06:42:13.813Z,25.61
2018-07-07T06:44:43.077Z,25.64
2018-07-07T06:47:12.405Z,25.74
2018-07-07T06:49:42.238Z,25.77
2018-07-07T06:52:11.218Z,25.90
2018-07-07T06:54:40.254Z,25.96
2018-07-07T06:57:10.063Z,25.93
2018-07-07T06:59:39.172Z,25.91
2018-07-07T07:02:08.273Z,25.95
2018-07-07T07:04:37.770Z,26.05
2018-07-07T07:07:06.922Z,26.09
2018-07-07T07:09:36.208Z,26.10
2018-07-07T07:12:07.002Z,26.10
2018-07-07T07:14:39.267Z,26.20
2018-07-07T07:17:11.031Z,26.28
2018-07-07T07:19:40.561Z,26.30
2018-07-07T07:23:11.957Z,26.33
2018-07-07T07:25:41.789Z,26.45
2018-07-07T07:28:10.814Z,26.54
2018-07-07T07:30:39.943Z,26.60
2018-07-07T07:33:09.783Z,26.57
2018-07-07T07:38:03.920Z,26.61
2018-07-07T07:40:33.893Z,26.69
2018-07-07T07:43:03.265Z,26.77
2018-07-07T07:45:32.315Z,26.86
2018-07-07T07:48:03.960Z,26.93
2018-07-07T07:50:36.053Z,27.00
2018-07-07T07:53:05.158Z,27.13
2018-07-07T07:55:34.127Z,27.17
2018-07-07T07:58:04.095Z,27.27
2018-07-07T08:00:33.221Z,27.36
2018-07-07T08:03:01.961Z,27.47
2018-07-07T08:05:30.674Z,27.60
2018-07-07T08:07:59.908Z,27.71
2018-07-07T08:10:28.624Z,27.83
2018-07-07T08:12:57.312Z,27.80
2018-07-07T08:15:26.333Z,27.76
2018-07-07T08:17:55.025Z,27.72
2018-07-07T08:20:23.737Z,27.66
2018-07-07T08:22:52.767Z,27.64
2018-07-07T08:25:21.483Z,27.68
2018-07-07T08:27:50.203Z,27.57
2018-07-07T08:30:19.476Z,27.20
2018-07-07T08:32:48.168Z,27.23
2018-07-07T08:35:16.962Z,27.33
2018-07-07T08:37:46.406Z,27.41
2018-07-07T08:40:15.133Z,27.32
2018-07-07T08:42:44.721Z,27.29
2018-07-07T08:45:13.940Z,27.10
2018-07-07T08:47:42.712Z,27.17
2018-07-07T08:50:11.397Z,27.10
2018-07-07T08:52:40.608Z,27.03
2018-07-07T08:55:09.404Z,26.98
2018-07-07T08:57:38.151Z,26.96
2018-07-07T09:00:07.767Z,26.95
2018-07-07T09:02:36.427Z,27.02
2018-07-07T09:05:05.792Z,27.07
2018-07-07T09:07:35.002Z,27.03
2018-07-07T09:10:04.446Z,27.03
2018-07-07T09:12:33.120Z,27.08
2018-07-07T09:15:01.866Z,27.16
2018-07-07T09:17:30.613Z,27.25
2018-07-07T09:19:59.308Z,27.40
2018-07-07T09:22:27.964Z,27.55
2018-07-07T09:24:56.849Z,27.56
2018-07-07T09:27:26.559Z,27.47
2018-07-07T09:29:55.327Z,27.49
2018-07-07T09:32:23.996Z,27.57
2018-07-07T09:34:53.085Z,27.61
2018-07-07T09:37:21.852Z,27.55
2018-07-07T09:39:51.773Z,27.66
2018-07-07T09:42:20.550Z,27.66
2018-07-07T09:44:49.278Z,27.74
2018-07-07T09:47:18.038Z,27.73
2018-07-07T09:49:47.249Z,27.74
2018-07-07T09:52:16.033Z,27.86
2018-07-07T09:54:44.914Z,28.03
2018-07-07T09:57:14.149Z,28.14
2018-07-07T09:59:42.852Z,28.21
2018-07-07T10:02:11.664Z,28.35
2018-07-07T10:04:40.848Z,28.41
2018-07-07T10:07:09.604Z,28.60
2018-07-07T10:09:38.360Z,28.69
2018-07-07T10:12:07.454Z,28.93
2018-07-07T10:14:36.143Z,29.08
2018-07-07T10:17:04.911Z,29.16
2018-07-07T10:19:35.124Z,29.20
2018-07-07T10:22:04.472Z,29.34
2018-07-07T10:24:33.808Z,29.55
2018-07-07T10:27:03.386Z,29.59
2018-07-07T10:29:32.090Z,29.93
2018-07-07T10:32:00.888Z,30.09
2018-07-07T10:34:30.144Z,30.16
2018-07-07T10:36:59.013Z,30.28
2018-07-07T10:39:27.856Z,30.43
2018-07-07T10:41:56.956Z,30.39
2018-07-07T10:44:25.654Z,30.53
2018-07-07T10:46:54.359Z,30.71
2018-07-07T10:49:23.448Z,30.98
2018-07-07T10:51:52.123Z,30.93
2018-07-07T10:54:20.798Z,30.91
2018-07-07T10:56:50.053Z,31.20
2018-07-07T10:59:18.773Z,31.61
2018-07-07T11:01:47.506Z,31.67
2018-07-07T11:04:16.737Z,32.11
2018-07-07T11:06:45.451Z,32.11
2018-07-07T11:09:14.274Z,32.42
2018-07-07T11:11:43.363Z,32.72
2018-07-07T11:14:12.045Z,33.07
2018-07-07T11:16:40.732Z,33.11
2018-07-07T11:19:09.922Z,33.30
2018-07-07T11:21:38.977Z,33.37
2018-07-07T11:24:07.758Z,33.54
2018-07-07T11:26:36.724Z,33.53
2018-07-07T11:29:06.770Z,33.57
2018-07-07T11:31:35.731Z,33.97
2018-07-07T11:34:05.757Z,33.99
2018-07-07T11:36:34.615Z,34.27
2018-07-07T11:39:03.409Z,34.20
2018-07-07T11:41:32.518Z,34.40
2018-07-07T11:44:01.711Z,34.06
2018-07-07T11:46:30.412Z,33.91
2018-07-07T11:48:59.408Z,34.17
2018-07-07T11:51:28.067Z,33.89
2018-07-07T11:53:56.747Z,33.86
2018-07-07T11:56:26.279Z,33.47
2018-07-07T11:58:55.067Z,33.40
2018-07-07T12:01:23.883Z,33.73
2018-07-07T12:03:53.473Z,34.04
2018-07-07T12:06:22.180Z,34.37
2018-07-07T12:08:50.922Z,34.73
2018-07-07T12:11:20.138Z,35.08
2018-07-07T12:13:48.845Z,35.30
2018-07-07T12:16:17.595Z,34.92
2018-07-07T12:18:46.740Z,34.94
2018-07-07T12:21:15.452Z,34.47
2018-07-07T12:23:44.167Z,34.93
2018-07-07T12:26:13.359Z,34.87
2018-07-07T12:28:42.702Z,35.26
2018-07-07T12:31:11.378Z,35.40
2018-07-07T12:33:40.520Z,35.95
2018-07-07T12:36:09.253Z,36.13
2018-07-07T12:38:37.988Z,35.94
2018-07-07T12:41:07.185Z,36.35
2018-07-07T12:43:35.919Z,37.13
2018-07-07T12:46:05.347Z,37.56
2018-07-07T12:48:34.432Z,37.44
2018-07-07T12:51:03.256Z,37.09
2018-07-07T12:53:32.059Z,37.20
2018-07-07T12:56:01.172Z,37.83
2018-07-07T12:58:29.873Z,38.23
2018-07-07T13:00:58.563Z,38.42
2018-07-07T13:03:27.996Z,38.99
2018-07-07T13:05:56.821Z,39.09
2018-07-07T13:08:25.517Z,38.65
2018-07-07T13:10:54.724Z,38.65
2018-07-07T13:13:23.437Z,39.31
2018-07-07T13:15:52.142Z,40.16
2018-07-07T13:18:21.308Z,40.68
2018-07-07T13:20:50.022Z,41.78
2018-07-07T13:23:18.730Z,42.17
2018-07-07T13:25:48.850Z,42.18
2018-07-07T13:28:17.520Z,41.74
2018-07-07T13:30:46.270Z,40.78
2018-07-07T13:33:15.495Z,39.55
2018-07-07T13:35:44.210Z,38.81
2018-07-07T13:38:13.799Z,38.97
2018-07-07T13:40:43.076Z,38.93
2018-07-07T13:43:11.789Z,39.42
2018-07-07T13:45:40.525Z,39.40
2018-07-07T13:48:09.641Z,38.78
2018-07-07T13:50:38.393Z,39.38
2018-07-07T13:53:07.128Z,40.39
2018-07-07T13:55:35.901Z,41.20
2018-07-07T13:58:05.318Z,40.59
2018-07-07T14:00:35.271Z,39.40
2018-07-07T14:03:04.570Z,38.53
2018-07-07T14:05:33.490Z,38.22
2018-07-07T14:08:04.694Z,37.45
2018-07-07T14:10:33.544Z,36.80
2018-07-07T14:13:03.410Z,36.76
2018-07-07T14:15:34.143Z,36.32
2018-07-07T14:18:04.302Z,36.12
2018-07-07T14:20:33.372Z,37.47
2018-07-07T14:23:02.398Z,39.46
2018-07-07T14:25:31.536Z,39.21
2018-07-07T14:28:01.360Z,39.14
2018-07-07T14:30:30.455Z,41.06
2018-07-07T14:32:59.227Z,43.19
2018-07-07T14:35:31.930Z,44.79
2018-07-07T14:38:01.167Z,46.28
2018-07-07T14:40:33.049Z,47.12
2018-07-07T14:43:01.788Z,48.10
2018-07-07T14:45:33.233Z,48.64
2018-07-07T14:48:08.658Z,49.22
2018-07-07T14:50:37.302Z,48.70
2018-07-07T14:53:05.927Z,49.71
2018-07-07T14:55:34.467Z,50.55
2018-07-07T14:58:05.446Z,50.69
2018-07-07T15:00:35.592Z,49.90
2018-07-07T15:03:05.697Z,49.30
2018-07-07T15:05:34.929Z,48.28
2018-07-07T15:08:04.368Z,46.85
2018-07-07T15:10:33.065Z,45.93
2018-07-07T15:13:01.763Z,46.52
2018-07-07T15:15:30.636Z,47.62
2018-07-07T15:17:59.930Z,48.32
2018-07-07T15:20:28.735Z,48.70
2018-07-07T15:22:57.529Z,48.84
2018-07-07T15:25:29.684Z,48.92
2018-07-07T15:27:58.347Z,49.21
2018-07-07T15:30:28.886Z,49.39
2018-07-07T15:32:57.607Z,49.59
2018-07-07T15:35:26.184Z,49.39
2018-07-07T15:37:55.290Z,48.76
2018-07-07T15:40:26.469Z,47.84
2018-07-07T15:42:55.271Z,47.18
2018-07-07T15:45:24.291Z,46.56
2018-07-07T15:47:53.032Z,45.55
2018-07-07T15:50:21.943Z,44.37
2018-07-07T15:52:51.103Z,43.85
2018-07-07T15:55:19.690Z,43.21
2018-07-07T15:57:48.259Z,42.38
2018-07-07T16:00:17.399Z,41.93
2018-07-07T16:02:46.168Z,41.49
2018-07-07T16:05:14.765Z,40.92
2018-07-07T16:07:43.748Z,40.44
2018-07-07T16:10:12.262Z,40.24
2018-07-07T16:12:41.030Z,39.97
2018-07-07T16:15:11.377Z,39.77
2018-07-07T16:17:40.604Z,39.68
2018-07-07T16:20:09.155Z,39.38
2018-07-07T16:22:38.018Z,38.81
2018-07-07T16:25:06.600Z,38.17
2018-07-07T16:27:35.357Z,37.87
2018-07-07T16:30:04.935Z,37.82
2018-07-07T16:32:33.508Z,37.77
2018-07-07T16:35:02.067Z,37.23
2018-07-07T16:37:30.942Z,37.02
2018-07-07T16:39:59.505Z,36.76
2018-07-07T16:42:28.073Z,36.70
2018-07-07T16:47:32.927Z,36.67
2018-07-07T16:50:04.303Z,36.78
2018-07-07T16:52:33.197Z,36.69
2018-07-07T16:55:05.840Z,36.56
2018-07-07T16:57:34.465Z,36.40
2018-07-07T17:00:04.684Z,36.34
2018-07-07T17:02:33.263Z,36.24
2018-07-07T17:05:01.925Z,36.07
2018-07-07T17:07:30.984Z,35.75
2018-07-07T17:09:59.708Z,35.65
2018-07-07T17:12:28.315Z,35.50
2018-07-07T17:14:57.209Z,35.21
2018-07-07T17:17:30.751Z,34.84
2018-07-07T17:19:59.337Z,34.41
2018-07-07T17:22:28.642Z,34.12
2018-07-07T17:24:57.315Z,34.07
2018-07-07T17:27:26.079Z,34.12
2018-07-07T17:29:55.056Z,34.03
2018-07-07T17:32:23.744Z,34.07
2018-07-07T17:34:59.645Z,34.03
2018-07-07T17:37:29.249Z,33.95
2018-07-07T17:39:57.855Z,33.72
2018-07-07T17:42:27.058Z,33.81
2018-07-07T17:44:59.555Z,33.69
2018-07-07T17:47:36.564Z,33.51
2018-07-07T17:50:06.712Z,33.46
2018-07-07T17:52:38.124Z,33.43
2018-07-07T17:55:11.162Z,33.36
2018-07-07T17:57:40.178Z,33.34
2018-07-07T18:00:10.380Z,33.36
2018-07-07T18:02:39.013Z,33.20
2018-07-07T18:05:08.038Z,33.13
2018-07-07T18:07:36.611Z,32.89
2018-07-07T18:10:05.486Z,32.83
2018-07-07T18:12:34.589Z,32.70
2018-07-07T18:15:07.108Z,32.55
2018-07-07T18:17:35.638Z,32.51
2018-07-07T18:20:05.449Z,32.38
2018-07-07T18:22:34.058Z,32.32
2018-07-07T18:25:02.940Z,32.24
2018-07-07T18:27:31.967Z,32.20
2018-07-07T18:30:01.244Z,32.11
2018-07-07T18:32:29.963Z,32.00
2018-07-07T18:34:58.787Z,31.92
2018-07-07T18:37:27.392Z,31.81
2018-07-07T18:39:56.202Z,31.72
2018-07-07T18:42:24.760Z,31.58
2018-07-07T18:44:55.237Z,31.46
2018-07-07T18:47:24.051Z,31.35
2018-07-07T18:49:52.641Z,31.16
2018-07-07T18:52:21.167Z,30.99
2018-07-07T18:54:50.082Z,30.89
2018-07-07T18:57:18.800Z,30.74
2018-07-07T18:59:48.008Z,30.60
2018-07-07T19:02:17.010Z,30.40
2018-07-07T19:04:49.274Z,30.26
2018-07-07T19:07:17.819Z,30.20
2018-07-07T19:09:46.380Z,30.06
2018-07-07T19:12:14.928Z,29.94
2018-07-07T19:14:43.823Z,29.94
2018-07-07T19:17:12.685Z,29.85
2018-07-07T19:19:41.623Z,29.74
2018-07-07T19:22:15.630Z,29.68
2018-07-07T19:24:49.274Z,29.59
2018-07-07T19:27:18.620Z,29.42
2018-07-07T19:29:47.671Z,29.35
2018-07-07T19:32:21.390Z,29.23
2018-07-07T19:35:00.805Z,29.10
2018-07-07T19:37:30.641Z,29.03
2018-07-07T19:39:59.196Z,28.94
2018-07-07T19:42:27.708Z,28.81
2018-07-07T19:44:56.566Z,28.82
2018-07-07T19:47:25.085Z,28.76
2018-07-07T19:49:53.611Z,28.67
2018-07-07T19:52:23.020Z,28.64
2018-07-07T19:54:59.108Z,28.49
2018-07-07T19:57:27.748Z,28.42
2018-07-07T20:00:02.314Z,28.34
2018-07-07T20:02:33.421Z,28.28
2018-07-07T20:05:03.066Z,28.23
2018-07-07T20:07:31.683Z,28.19
2018-07-07T20:10:00.268Z,28.16
2018-07-07T20:12:36.170Z,28.13
2018-07-07T20:15:04.852Z,28.07
2018-07-07T20:17:44.877Z,28.01
2018-07-07T20:21:50.025Z,27.98
2018-07-07T20:24:21.862Z,27.88
2018-07-07T20:27:06.402Z,27.80
2018-07-07T20:29:35.670Z,27.77
2018-07-07T20:32:08.973Z,27.69
2018-07-07T20:34:37.687Z,27.68
2018-07-07T20:37:06.655Z,27.66
2018-07-07T20:39:39.798Z,27.64
2018-07-07T20:42:08.319Z,27.56
2018-07-07T20:44:37.198Z,27.46
2018-07-07T20:47:11.658Z,27.47
2018-07-07T20:49:40.219Z,27.42
2018-07-07T20:52:09.259Z,27.36
2018-07-07T20:54:37.823Z,27.34
2018-07-07T20:57:06.389Z,27.27
2018-07-07T20:59:35.514Z,27.25
2018-07-07T21:02:05.174Z,27.21
2018-07-07T21:04:34.883Z,27.15
2018-07-07T21:07:03.888Z,27.12
2018-07-07T21:09:38.983Z,27.08
2018-07-07T21:12:07.727Z,26.98
2018-07-07T21:14:36.680Z,26.98
2018-07-07T21:17:05.238Z,26.94
2018-07-07T21:19:33.810Z,26.90
2018-07-07T21:22:06.218Z,26.87
2018-07-07T21:24:34.733Z,26.82
2018-07-07T21:27:03.296Z,26.77
2018-07-07T21:29:32.944Z,26.78
2018-07-07T21:32:01.443Z,26.72
2018-07-07T21:34:30.024Z,26.63
2018-07-07T21:37:05.538Z,26.61
2018-07-07T21:39:34.096Z,26.58
2018-07-07T21:42:07.946Z,26.57
2018-07-07T21:44:36.926Z,26.55
2018-07-07T21:47:05.603Z,26.53
2018-07-07T21:49:34.232Z,26.50
2018-07-07T21:52:05.027Z,26.46
2018-07-07T21:54:33.567Z,26.40
2018-07-07T21:57:02.160Z,26.35
2018-07-07T21:59:31.048Z,26.29
2018-07-07T22:04:44.272Z,26.17
2018-07-07T22:07:17.955Z,26.09
2018-07-07T22:09:46.937Z,26.03
2018-07-07T22:12:15.525Z,25.98
2018-07-07T22:14:44.197Z,25.96
2018-07-07T22:17:16.651Z,25.95
2018-07-07T22:19:45.308Z,25.92
2018-07-07T22:22:14.379Z,25.87
2018-07-07T22:24:44.493Z,25.81
2018-07-07T22:27:14.306Z,25.82
2018-07-07T22:29:42.918Z,25.72
2018-07-07T22:32:17.142Z,25.73
2018-07-07T22:34:45.755Z,25.74
2018-07-07T22:37:14.403Z,25.72
2018-07-07T22:39:44.493Z,25.69
2018-07-07T22:42:20.311Z,25.64
2018-07-07T22:44:50.019Z,25.61
2018-07-07T22:47:18.595Z,25.57
2018-07-07T22:49:47.105Z,25.55
2018-07-07T22:52:17.835Z,25.52
2018-07-07T22:54:46.463Z,25.45
2018-07-07T22:57:15.071Z,25.45
2018-07-07T22:59:44.074Z,25.38
2018-07-07T23:02:13.186Z,25.34
2018-07-07T23:04:42.576Z,25.31
2018-07-07T23:07:12.388Z,25.26
2018-07-07T23:09:41.059Z,25.21
2018-07-07T23:12:09.613Z,25.17
2018-07-07T23:14:39.777Z,25.14
2018-07-07T23:17:08.327Z,25.11
2018-07-07T23:19:38.819Z,25.05
2018-07-07T23:22:08.286Z,24.99
2018-07-07T23:24:51.395Z,24.97
2018-07-07T23:27:20.379Z,24.93
2018-07-07T23:29:48.909Z,24.90
2018-07-07T23:32:17.440Z,24.87
2018-07-07T23:34:46.387Z,24.84
2018-07-07T23:37:15.034Z,24.81
2018-07-07T23:39:43.539Z,24.77
2018-07-07T23:42:12.449Z,24.72
2018-07-07T23:44:40.977Z,24.66
2018-07-07T23:47:10.016Z,24.64
2018-07-07T23:49:38.917Z,24.58
2018-07-07T23:52:07.532Z,24.54
2018-07-07T23:54:36.119Z,24.51
2018-07-07T23:57:08.824Z,24.47
2018-07-07T23:59:37.327Z,24.47
